Time;durP1;ratioP1;P1;durP2;ratioP2;P2;SDS_P1;SDS_P2;PMS_P1;PMS_P2;Temp;Humidity;BMP_temperature;BMP_pressure;BME280_temperature;BME280_humidity;BME280_pressure;Samples;Min_cycle;Max_cycle;Signal;HPM_P1;HPM_P2
2022/12/07 00:01:28;;;;;;;5.70;0.50;;;5.80;99.90;;;;;;5053028;28;20135;-76
2022/12/07 00:04:03;;;;;;;2.45;0.65;;;5.70;99.90;;;;;;5053132;28;20045;-77
2022/12/07 00:06:29;;;;;;;6.45;1.23;;;5.70;99.90;;;;;;5054209;28;20428;-76
2022/12/07 00:08:55;;;;;;;3.35;0.60;;;5.60;99.90;;;;;;5053055;28;20481;-77
2022/12/07 00:11:22;;;;;;;13.60;2.60;;;5.60;99.90;;;;;;5054297;28;20099;-76
2022/12/07 00:13:52;;;;;;;10.32;1.27;;;5.60;99.90;;;;;;5053986;28;20493;-76
2022/12/07 00:16:20;;;;;;;6.90;1.10;;;5.60;99.90;;;;;;5053343;28;20481;-76
2022/12/07 00:18:46;;;;;;;9.25;1.23;;;5.60;99.90;;;;;;5053045;28;20064;-76
2022/12/07 00:21:17;;;;;;;7.30;0.93;;;5.60;99.90;;;;;;5053814;28;20508;-76
2022/12/07 00:23:44;;;;;;;7.10;2.30;;;5.60;99.90;;;;;;5054049;28;20067;-76
2022/12/07 00:26:17;;;;;;;5.35;0.73;;;5.60;99.90;;;;;;5053026;28;20060;-76
2022/12/07 00:29:04;;;;;;;7.15;0.73;;;5.70;99.90;;;;;;5054281;28;20048;-76
2022/12/07 00:31:35;;;;;;;9.88;0.95;;;5.80;99.90;;;;;;5053893;28;20044;-76
2022/12/07 00:34:01;;;;;;;6.07;1.00;;;5.70;99.90;;;;;;5052906;28;20056;-76
2022/12/07 00:36:27;;;;;;;11.55;1.08;;;5.60;99.90;;;;;;5053898;28;20071;-77
2022/12/07 00:38:53;;;;;;;5.07;0.60;;;5.50;99.90;;;;;;5053591;28;20067;-76
2022/12/07 00:41:21;;;;;;;5.43;0.75;;;5.50;99.90;;;;;;5053423;28;20040;-76
2022/12/07 00:43:48;;;;;;;12.32;1.00;;;5.50;99.90;;;;;;5053606;28;20103;-76
2022/12/07 00:46:15;;;;;;;6.05;0.95;;;5.50;99.90;;;;;;5053669;28;20501;-76
2022/12/07 00:48:41;;;;;;;9.43;0.80;;;5.40;99.90;;;;;;5053755;28;20120;-76
2022/12/07 00:51:07;;;;;;;12.05;1.60;;;5.40;99.90;;;;;;5053615;28;20133;-76
2022/12/07 00:53:37;;;;;;;13.85;2.30;;;5.40;99.90;;;;;;5053394;28;20403;-76
2022/12/07 00:56:26;;;;;;;15.68;1.80;;;5.50;99.90;;;;;;5052278;28;20049;-76
2022/12/07 00:58:55;;;;;;;5.68;1.15;;;5.50;99.90;;;;;;5052392;28;20124;-76
2022/12/07 01:01:21;;;;;;;8.18;1.08;;;5.60;99.90;;;;;;5052295;28;20037;-76
2022/12/07 01:03:47;;;;;;;10.00;1.58;;;5.70;99.90;;;;;;5052164;28;20512;-76
2022/12/07 01:06:18;;;;;;;9.88;1.30;;;5.70;99.90;;;;;;5053585;28;20056;-76
2022/12/07 01:08:44;;;;;;;8.45;1.42;;;5.70;99.90;;;;;;5053514;28;20041;-76
2022/12/07 01:11:14;;;;;;;11.43;1.10;;;5.70;99.90;;;;;;5052215;28;20099;-76
2022/12/07 01:13:40;;;;;;;12.63;1.42;;;5.70;99.90;;;;;;5053518;28;20060;-76
2022/12/07 01:16:07;;;;;;;9.52;0.90;;;5.70;99.90;;;;;;5053412;28;20374;-76
2022/12/07 01:18:35;;;;;;;5.05;0.70;;;5.70;99.90;;;;;;5052051;28;20151;-76
2022/12/07 01:21:12;;;;;;;8.68;0.70;;;5.70;99.90;;;;;;5052062;28;20087;-76
2022/12/07 01:23:38;;;;;;;9.65;0.82;;;5.70;99.90;;;;;;5053234;28;20041;-77
2022/12/07 01:26:09;;;;;;;6.05;1.15;;;5.60;99.90;;;;;;5053379;28;20080;-77
2022/12/07 01:28:35;;;;;;;7.35;1.20;;;5.60;99.90;;;;;;5053388;28;20099;-77
2022/12/07 01:31:03;;;;;;;5.78;0.60;;;5.50;99.90;;;;;;5053274;28;20437;-76
2022/12/07 01:33:32;;;;;;;4.22;0.80;;;5.60;99.90;;;;;;5052173;28;20037;-76
2022/12/07 01:36:06;;;;;;;10.30;1.23;;;5.60;99.90;;;;;;5052201;28;20044;-76
2022/12/07 01:38:33;;;;;;;6.57;1.10;;;5.60;99.90;;;;;;5053300;28;20045;-76
2022/12/07 01:41:00;;;;;;;5.05;1.58;;;5.50;99.90;;;;;;5053272;28;20073;-76
2022/12/07 01:43:28;;;;;;;13.30;1.25;;;5.50;99.90;;;;;;5053176;28;20041;-77
2022/12/07 01:45:54;;;;;;;11.63;1.60;;;5.50;99.90;;;;;;5055338;28;20045;-76
2022/12/07 01:48:34;;;;;;;8.65;1.30;;;5.50;99.90;;;;;;5057070;28;20490;-76
2022/12/07 01:51:05;;;;;;;10.63;1.70;;;5.50;99.90;;;;;;5055971;28;20045;-76
2022/12/07 01:53:34;;;;;;;12.98;1.13;;;5.50;99.90;;;;;;5056950;28;20037;-76
2022/12/07 01:56:00;;;;;;;8.43;1.92;;;5.50;99.90;;;;;;5056903;28;20079;-76
2022/12/07 01:58:26;;;;;;;7.05;1.40;;;5.60;99.90;;;;;;5055424;28;20126;-77
2022/12/07 02:00:51;;;;;;;11.95;1.45;;;5.60;99.90;;;;;;5056621;28;20488;-76
2022/12/07 02:03:38;;;;;;;6.53;1.38;;;5.70;99.90;;;;;;5055424;28;20138;-77
2022/12/07 02:06:05;;;;;;;8.90;1.17;;;5.70;99.90;;;;;;5056716;28;20044;-77
2022/12/07 02:08:32;;;;;;;13.98;1.77;;;5.70;99.90;;;;;;5056386;28;20393;-77
2022/12/07 02:10:57;;;;;;;4.85;0.57;;;5.50;99.90;;;;;;5056631;28;20041;-77
2022/12/07 02:13:27;;;;;;;5.55;0.60;;;5.50;99.90;;;;;;5056707;28;20045;-77
2022/12/07 02:16:14;;;;;;;3.03;0.57;;;5.40;99.90;;;;;;5056560;28;20036;-77
2022/12/07 02:18:51;;;;;;;7.13;0.93;;;5.40;99.90;;;;;;5056286;28;20095;-77
2022/12/07 02:21:38;;;;;;;11.55;3.28;;;5.20;99.90;;;;;;5056195;28;20060;-76
2022/12/07 02:24:34;;;;;;;1.60;0.35;;;5.20;99.90;;;;;;5055195;28;20097;-77
2022/12/07 02:27:06;;;;;;;7.30;1.58;;;5.20;99.90;;;;;;5055262;28;20053;-77
2022/12/07 02:29:32;;;;;;;4.90;0.68;;;5.40;99.90;;;;;;5055127;28;20477;-77
2022/12/07 02:32:15;;;;;;;7.20;1.20;;;5.50;99.90;;;;;;5055087;28;20091;-78
2022/12/07 02:34:44;;;;;;;9.90;0.70;;;5.50;99.90;;;;;;5056200;28;20037;-77
2022/12/07 02:37:32;;;;;;;12.23;0.80;;;5.40;99.90;;;;;;5056056;28;20477;-77
2022/12/07 02:40:03;;;;;;;10.35;0.60;;;5.40;99.90;;;;;;5056112;28;20069;-77
2022/12/07 02:42:38;;;;;;;11.93;0.90;;;5.40;99.90;;;;;;5055869;28;20370;-77
2022/12/07 02:45:06;;;;;;;10.30;1.35;;;5.30;99.90;;;;;;5055967;28;20053;-77
2022/12/07 02:47:34;;;;;;;13.02;1.48;;;5.40;99.90;;;;;;5055959;28;20048;-77
2022/12/07 02:50:02;;;;;;;16.00;1.45;;;5.40;99.90;;;;;;5055792;28;20037;-76
2022/12/07 02:52:27;;;;;;;8.57;1.17;;;5.50;99.90;;;;;;5054311;28;20049;-77
2022/12/07 02:54:53;;;;;;;6.05;0.57;;;5.50;99.90;;;;;;5055947;28;20049;-77
2022/12/07 02:57:48;;;;;;;4.53;0.60;;;5.50;99.90;;;;;;5054744;28;20053;-77
2022/12/07 03:00:17;;;;;;;7.53;0.80;;;5.40;99.90;;;;;;5055685;28;20068;-76
2022/12/07 03:02:58;;;;;;;6.45;1.33;;;5.40;99.90;;;;;;5055686;28;20044;-77
2022/12/07 03:05:45;;;;;;;7.55;1.08;;;5.40;99.90;;;;;;5055429;28;20095;-76
2022/12/07 03:08:37;;;;;;;21.75;2.97;;;5.30;99.90;;;;;;5055565;28;20044;-76
2022/12/07 03:11:02;;;;;;;10.45;1.60;;;5.30;99.90;;;;;;5054105;28;20060;-77
2022/12/07 03:13:42;;;;;;;8.15;0.90;;;5.30;99.90;;;;;;5055473;28;20123;-77
2022/12/07 03:16:12;;;;;;;8.95;0.77;;;5.30;99.90;;;;;;5055581;28;20481;-76
2022/12/07 03:18:52;;;;;;;6.88;0.80;;;5.30;99.90;;;;;;5054426;28;20060;-76
2022/12/07 03:21:27;;;;;;;13.75;1.20;;;5.30;99.90;;;;;;5053680;28;20067;-77
2022/12/07 03:23:57;;;;;;;5.40;0.77;;;5.30;99.90;;;;;;5055043;28;20056;-77
2022/12/07 03:26:35;;;;;;;4.50;0.80;;;5.30;99.90;;;;;;5055282;28;20041;-77
2022/12/07 03:29:10;;;;;;;6.90;0.77;;;5.30;99.90;;;;;;5055047;28;20049;-77
2022/12/07 03:31:41;;;;;;;5.50;0.70;;;5.30;99.90;;;;;;5055582;28;20167;-76
2022/12/07 03:34:16;;;;;;;5.03;0.57;;;5.30;99.90;;;;;;5053653;28;20048;-76
2022/12/07 03:37:03;;;;;;;7.68;0.90;;;5.30;99.90;;;;;;5055026;28;20040;-76
2022/12/07 03:39:52;;;;;;;8.02;1.42;;;5.30;99.90;;;;;;5055029;28;20052;-77
2022/12/07 03:42:17;;;;;;;12.43;0.98;;;5.30;99.90;;;;;;5054892;28;20040;-77
2022/12/07 03:44:43;;;;;;;8.98;1.33;;;5.20;99.90;;;;;;5053341;28;20407;-77
2022/12/07 03:47:47;;;;;;;10.18;1.88;;;5.10;99.90;;;;;;5054730;28;20051;-77
2022/12/07 03:50:29;;;;;;;8.20;0.80;;;5.20;99.90;;;;;;5052519;28;20057;-77
2022/12/07 03:52:56;;;;;;;7.25;1.02;;;5.20;99.90;;;;;;5054480;28;20507;-77
2022/12/07 03:55:29;;;;;;;17.00;1.77;;;5.30;99.90;;;;;;5054621;28;20052;-77
2022/12/07 03:58:02;;;;;;;13.48;1.60;;;5.20;99.90;;;;;;5054642;28;20056;-77
2022/12/07 04:00:28;;;;;;;19.25;1.92;;;5.20;99.90;;;;;;5054616;28;20048;-77
2022/12/07 04:02:55;;;;;;;11.80;1.50;;;5.20;99.90;;;;;;5054500;28;20032;-77
2022/12/07 04:05:21;;;;;;;9.65;1.00;;;5.20;99.90;;;;;;5054364;28;20045;-77
2022/12/07 04:07:47;;;;;;;13.18;2.85;;;5.20;99.90;;;;;;5054125;28;20041;-77
2022/12/07 04:10:13;;;;;;;21.25;2.92;;;5.30;99.90;;;;;;5054413;28;20490;-76
2022/12/07 04:12:39;;;;;;;9.85;1.08;;;5.40;99.90;;;;;;5054340;28;20040;-76
2022/12/07 04:15:05;;;;;;;5.65;0.88;;;5.40;99.90;;;;;;5054311;28;20439;-76
2022/12/07 04:17:31;;;;;;;8.07;1.00;;;5.40;99.90;;;;;;5054079;28;20444;-77
2022/12/07 04:19:56;;;;;;;7.05;1.17;;;5.40;99.90;;;;;;5052806;28;20053;-77
2022/12/07 04:22:22;;;;;;;10.18;1.17;;;5.40;99.90;;;;;;5053725;28;20045;-77
2022/12/07 04:24:48;;;;;;;12.55;1.33;;;5.30;99.90;;;;;;5054043;28;20493;-77
2022/12/07 04:27:13;;;;;;;10.70;1.10;;;5.30;99.90;;;;;;5053007;28;20056;-76
2022/12/07 04:29:39;;;;;;;3.50;0.85;;;5.30;99.90;;;;;;5052724;28;20089;-77
2022/12/07 04:32:05;;;;;;;16.08;3.67;;;5.40;99.90;;;;;;5052948;28;20052;-77
2022/12/07 04:34:30;;;;;;;7.45;1.08;;;5.50;99.90;;;;;;5053701;28;20048;-76
2022/12/07 04:36:56;;;;;;;3.10;0.90;;;5.40;99.90;;;;;;5053789;28;20044;-76
2022/12/07 04:39:25;;;;;;;11.40;1.25;;;5.40;99.90;;;;;;5053903;28;20049;-76
2022/12/07 04:41:51;;;;;;;10.00;0.90;;;5.40;99.90;;;;;;5053806;28;20481;-76
2022/12/07 04:44:17;;;;;;;9.23;1.20;;;5.40;99.90;;;;;;5053692;28;20480;-76
2022/12/07 04:46:43;;;;;;;6.45;0.85;;;5.40;99.90;;;;;;5053643;28;20040;-76
2022/12/07 04:49:10;;;;;;;9.02;0.98;;;5.40;99.90;;;;;;5052344;28;20052;-76
2022/12/07 04:51:36;;;;;;;23.75;1.48;;;5.40;99.90;;;;;;5052615;28;20045;-76
2022/12/07 04:54:02;;;;;;;9.48;1.50;;;5.30;99.90;;;;;;5053518;28;20449;-77
2022/12/07 04:56:28;;;;;;;10.95;1.10;;;5.30;99.90;;;;;;5053653;28;20549;-76
2022/12/07 04:58:54;;;;;;;7.15;1.30;;;5.30;99.90;;;;;;5052629;28;20400;-77
2022/12/07 05:01:20;;;;;;;13.45;1.67;;;5.30;99.90;;;;;;5053673;28;20048;-76
2022/12/07 05:03:46;;;;;;;5.65;0.88;;;5.30;99.90;;;;;;5052398;28;20059;-76
2022/12/07 05:06:13;;;;;;;10.82;2.17;;;5.30;99.90;;;;;;5052201;28;20399;-76
2022/12/07 05:08:39;;;;;;;9.52;0.63;;;5.30;99.90;;;;;;5053465;28;20080;-76
2022/12/07 05:11:06;;;;;;;4.70;0.63;;;5.30;99.90;;;;;;5052511;28;20088;-76
2022/12/07 05:13:32;;;;;;;9.27;0.90;;;5.30;99.90;;;;;;5053491;28;20072;-76
2022/12/07 05:15:58;;;;;;;4.25;1.20;;;5.30;99.90;;;;;;5052090;28;20056;-76
2022/12/07 05:18:24;;;;;;;15.98;1.10;;;5.30;99.90;;;;;;5053487;28;20048;-76
2022/12/07 05:20:51;;;;;;;6.65;1.13;;;5.20;99.90;;;;;;5055465;28;20045;-76
2022/12/07 05:23:17;;;;;;;15.95;1.50;;;5.20;99.90;;;;;;5056249;28;20052;-76
2022/12/07 05:25:43;;;;;;;6.70;1.25;;;5.20;99.90;;;;;;5057597;28;20052;-76
2022/12/07 05:28:09;;;;;;;5.10;0.80;;;5.20;99.90;;;;;;5057362;28;20037;-76
2022/12/07 05:30:35;;;;;;;12.45;1.75;;;5.10;99.90;;;;;;5057391;28;20499;-76
2022/12/07 05:33:00;;;;;;;7.32;1.75;;;5.10;99.90;;;;;;5057358;28;20061;-76
2022/12/07 05:35:26;;;;;;;12.68;1.92;;;5.00;99.90;;;;;;5055903;28;20037;-76
2022/12/07 05:37:52;;;;;;;12.02;1.45;;;5.00;99.90;;;;;;5057179;28;20051;-76
2022/12/07 05:40:18;;;;;;;8.40;0.63;;;5.10;99.90;;;;;;5057218;28;20041;-76
2022/12/07 05:42:44;;;;;;;5.40;1.48;;;5.20;99.90;;;;;;5057066;28;20440;-76
2022/12/07 05:45:10;;;;;;;6.20;0.60;;;5.20;99.90;;;;;;5056743;28;20389;-76
2022/12/07 05:47:36;;;;;;;5.18;1.10;;;5.20;99.90;;;;;;5057069;28;20037;-76
2022/12/07 05:50:03;;;;;;;5.75;0.77;;;5.10;99.90;;;;;;5056879;28;20045;-76
2022/12/07 05:52:29;;;;;;;5.93;1.17;;;5.10;99.90;;;;;;5055862;28;20049;-76
2022/12/07 05:54:55;;;;;;;8.57;1.02;;;5.00;99.90;;;;;;5057233;28;20048;-76
2022/12/07 05:57:20;;;;;;;3.75;0.77;;;5.00;99.90;;;;;;5056902;28;20037;-76
2022/12/07 05:59:46;;;;;;;11.20;2.40;;;4.90;99.90;;;;;;5056769;28;20566;-76
2022/12/07 06:02:14;;;;;;;6.80;0.60;;;4.90;99.90;;;;;;5056731;28;20037;-76
2022/12/07 06:04:42;;;;;;;6.80;1.00;;;4.90;99.90;;;;;;5056581;28;20052;-76
2022/12/07 06:07:09;;;;;;;5.00;0.88;;;4.90;99.90;;;;;;5056886;28;20048;-76
2022/12/07 06:09:35;;;;;;;10.18;1.98;;;4.80;99.90;;;;;;5055392;28;20404;-76
2022/12/07 06:14:45;;;;;;;14.40;1.67;;;4.70;99.90;;;;;;5056307;28;20412;-76
2022/12/07 06:17:12;;;;;;;6.53;0.85;;;4.80;99.90;;;;;;5056479;28;20041;-76
2022/12/07 06:19:39;;;;;;;8.25;1.48;;;4.70;99.90;;;;;;5055441;28;20522;-76
2022/12/07 06:22:05;;;;;;;6.85;1.52;;;4.70;99.90;;;;;;5056146;28;20045;-76
2022/12/07 06:24:32;;;;;;;7.47;1.55;;;4.70;99.90;;;;;;5056266;28;20044;-76
2022/12/07 06:26:58;;;;;;;8.15;1.00;;;4.70;99.90;;;;;;5056566;28;20080;-76
2022/12/07 06:29:24;;;;;;;12.10;1.40;;;4.60;99.90;;;;;;5055147;28;20495;-76
2022/12/07 06:31:50;;;;;;;9.10;1.65;;;4.70;99.90;;;;;;5055952;28;20147;-76
2022/12/07 06:34:18;;;;;;;8.23;1.08;;;4.90;99.90;;;;;;5056213;28;20037;-76
2022/12/07 06:36:45;;;;;;;13.85;1.50;;;5.00;99.90;;;;;;5055314;28;20550;-76
2022/12/07 06:39:11;;;;;;;9.48;1.02;;;5.00;99.90;;;;;;5055941;28;20404;-76
2022/12/07 06:41:38;;;;;;;8.25;1.30;;;5.10;99.90;;;;;;5055820;28;20052;-76
2022/12/07 06:44:05;;;;;;;4.88;0.88;;;5.10;99.90;;;;;;5055674;28;20459;-76
2022/12/07 06:46:31;;;;;;;4.55;1.35;;;5.10;99.90;;;;;;5054904;28;20041;-76
2022/12/07 06:48:57;;;;;;;10.52;1.95;;;5.10;99.90;;;;;;5055966;28;20481;-76
2022/12/07 06:51:22;;;;;;;8.93;1.40;;;5.00;99.90;;;;;;5055899;28;20045;-76
2022/12/07 06:53:48;;;;;;;16.02;1.77;;;5.00;99.90;;;;;;5055763;28;20045;-76
2022/12/07 06:56:14;;;;;;;2.72;1.25;;;4.90;99.90;;;;;;5055823;28;20048;-76
2022/12/07 06:58:40;;;;;;;7.30;1.27;;;4.90;99.90;;;;;;5055822;28;20384;-76
2022/12/07 07:01:10;;;;;;;4.63;1.27;;;4.80;99.90;;;;;;5055736;28;20044;-76
2022/12/07 07:03:36;;;;;;;4.68;1.42;;;4.80;99.90;;;;;;5055690;28;20136;-76
2022/12/07 07:06:02;;;;;;;6.18;1.40;;;4.90;99.90;;;;;;5055250;28;20543;-76
2022/12/07 07:08:27;;;;;;;8.98;1.05;;;4.90;99.90;;;;;;5054047;28;20401;-76
2022/12/07 07:10:53;;;;;;;7.65;1.10;;;4.90;99.90;;;;;;5054125;28;20056;-76
2022/12/07 07:13:19;;;;;;;6.00;1.00;;;4.90;99.90;;;;;;5055356;28;20040;-76
2022/12/07 07:15:44;;;;;;;7.18;1.17;;;4.90;99.90;;;;;;5055327;28;20041;-76
2022/12/07 07:18:10;;;;;;;10.18;1.20;;;4.90;99.90;;;;;;5054352;28;20052;-77
2022/12/07 07:20:37;;;;;;;8.63;1.13;;;4.90;99.90;;;;;;5055318;28;20388;-76
2022/12/07 07:23:04;;;;;;;13.55;2.47;;;4.90;99.90;;;;;;5053708;28;20056;-76
2022/12/07 07:25:31;;;;;;;12.07;1.08;;;5.00;99.90;;;;;;5053722;28;20476;-76
2022/12/07 07:27:56;;;;;;;11.05;1.25;;;5.00;99.90;;;;;;5053781;28;20041;-76
2022/12/07 07:30:22;;;;;;;11.00;1.67;;;5.10;99.90;;;;;;5054899;28;20037;-76
2022/12/07 07:32:48;;;;;;;4.55;1.13;;;5.10;99.90;;;;;;5052416;28;20041;-76
2022/12/07 07:35:14;;;;;;;8.23;1.55;;;5.20;99.90;;;;;;5053718;28;20048;-76
2022/12/07 07:37:40;;;;;;;11.00;1.00;;;5.20;99.90;;;;;;5055037;28;20440;-76
2022/12/07 07:40:07;;;;;;;12.15;1.05;;;5.20;99.90;;;;;;5054977;28;20073;-76
2022/12/07 07:42:33;;;;;;;2.25;0.88;;;5.20;99.90;;;;;;5053238;28;20487;-76
2022/12/07 07:44:58;;;;;;;8.48;1.30;;;5.20;99.90;;;;;;5053268;28;20076;-76
2022/12/07 07:47:24;;;;;;;9.32;0.90;;;5.20;99.90;;;;;;5054513;28;20049;-76
2022/12/07 07:49:50;;;;;;;11.00;1.55;;;5.10;99.90;;;;;;5053112;28;20041;-76
2022/12/07 07:52:15;;;;;;;6.88;1.35;;;5.10;99.90;;;;;;5053192;28;20073;-76
2022/12/07 07:54:41;;;;;;;6.07;1.52;;;5.10;99.90;;;;;;5053448;28;20529;-76
2022/12/07 07:57:06;;;;;;;8.75;1.55;;;5.10;99.90;;;;;;5054326;28;20044;-76
2022/12/07 07:59:32;;;;;;;7.15;1.30;;;5.10;99.90;;;;;;5054371;28;20053;-76
2022/12/07 08:01:58;;;;;;;8.77;1.42;;;5.20;99.90;;;;;;5053104;28;20114;-76
2022/12/07 08:04:23;;;;;;;8.68;0.73;;;5.20;99.90;;;;;;5052843;28;20063;-76
2022/12/07 08:06:49;;;;;;;8.52;1.30;;;5.20;99.90;;;;;;5052907;28;20075;-76
2022/12/07 08:09:14;;;;;;;6.75;1.10;;;5.20;99.90;;;;;;5052844;28;20473;-76
2022/12/07 08:11:40;;;;;;;6.00;1.30;;;5.20;99.90;;;;;;5052852;28;20053;-76
2022/12/07 08:14:06;;;;;;;5.88;1.40;;;5.30;99.90;;;;;;5053161;28;20071;-76
2022/12/07 08:16:31;;;;;;;5.53;0.90;;;5.30;99.90;;;;;;5052786;28;20041;-76
2022/12/07 08:18:57;;;;;;;6.55;1.13;;;5.40;99.90;;;;;;5054046;28;20041;-76
2022/12/07 08:21:23;;;;;;;6.93;0.80;;;5.40;99.90;;;;;;5054202;28;20056;-76
2022/12/07 08:23:48;;;;;;;4.50;0.68;;;5.40;99.90;;;;;;5054176;28;20492;-76
2022/12/07 08:26:16;;;;;;;3.00;0.60;;;5.40;99.90;;;;;;5053909;28;20051;-76
2022/12/07 08:28:43;;;;;;;4.25;0.77;;;5.40;99.90;;;;;;5053930;28;20045;-76
2022/12/07 08:31:12;;;;;;;4.72;0.45;;;5.20;99.90;;;;;;5054073;28;20083;-76
2022/12/07 08:33:39;;;;;;;6.43;0.95;;;5.30;99.90;;;;;;5053881;28;20059;-76
2022/12/07 08:36:07;;;;;;;6.38;0.68;;;5.20;99.90;;;;;;5046773;28;20045;-76
2022/12/07 08:38:35;;;;;;;4.35;0.45;;;5.10;99.90;;;;;;5036395;28;20057;-76
2022/12/07 08:41:01;;;;;;;6.00;1.02;;;5.00;99.90;;;;;;5033625;28;20107;-76
2022/12/07 08:43:27;;;;;;;6.55;0.88;;;5.10;99.90;;;;;;5033783;28;20041;-76
2022/12/07 08:46:19;;;;;;;5.03;0.45;;;5.00;99.90;;;;;;5033264;28;20052;-76
2022/12/07 08:49:01;;;;;;;4.32;0.40;;;5.00;99.90;;;;;;5033776;28;20087;-76
2022/12/07 08:51:27;;;;;;;7.57;0.77;;;5.00;99.90;;;;;;5032218;28;20085;-76
2022/12/07 08:53:55;;;;;;;7.70;0.63;;;5.00;99.90;;;;;;5031930;28;20080;-76
2022/12/07 08:56:22;;;;;;;3.58;1.02;;;5.00;99.90;;;;;;5031545;28;20096;-76
2022/12/07 08:58:48;;;;;;;3.75;0.60;;;5.10;99.90;;;;;;5032007;28;20092;-76
2022/12/07 09:01:14;;;;;;;5.20;1.23;;;5.10;99.90;;;;;;5033151;28;20137;-76
2022/12/07 09:03:40;;;;;;;9.30;1.23;;;5.10;99.90;;;;;;5032031;28;20485;-76
2022/12/07 09:06:07;;;;;;;39.50;3.60;;;5.10;99.90;;;;;;5033149;28;20047;-76
2022/12/07 09:08:38;;;;;;;10.88;0.82;;;5.10;99.90;;;;;;5033180;28;20041;-76
2022/12/07 09:11:04;;;;;;;6.55;0.88;;;5.20;99.90;;;;;;5033144;28;20042;-76
2022/12/07 09:13:29;;;;;;;17.70;2.90;;;5.20;99.90;;;;;;5031919;28;20049;-76
2022/12/07 09:15:55;;;;;;;6.97;1.40;;;5.30;99.90;;;;;;5031846;28;20045;-76
2022/12/07 09:18:21;;;;;;;15.93;1.45;;;5.30;99.90;;;;;;5031842;28;20085;-76
2022/12/07 09:20:46;;;;;;;5.35;0.93;;;5.50;99.90;;;;;;5032813;28;20111;-76
2022/12/07 09:23:12;;;;;;;6.20;1.15;;;5.50;99.90;;;;;;5031707;28;20057;-76
2022/12/07 09:25:38;;;;;;;10.15;1.08;;;5.50;99.90;;;;;;5032897;28;20052;-76
2022/12/07 09:28:03;;;;;;;9.57;1.13;;;5.60;99.90;;;;;;5032962;28;20038;-76
2022/12/07 09:30:29;;;;;;;7.75;2.75;;;5.60;99.90;;;;;;5033284;28;20072;-75
2022/12/07 09:32:56;;;;;;;6.00;1.20;;;5.60;99.90;;;;;;5031922;28;20119;-76
2022/12/07 09:35:22;;;;;;;7.05;1.58;;;5.60;99.90;;;;;;5031653;28;20056;-75
2022/12/07 09:37:48;;;;;;;13.70;1.63;;;5.80;99.90;;;;;;5031648;28;20417;-76
2022/12/07 09:40:16;;;;;;;15.68;1.50;;;5.80;99.90;;;;;;5031602;28;20533;-76
2022/12/07 09:42:47;;;;;;;11.00;1.42;;;6.00;99.90;;;;;;5031924;28;20053;-76
2022/12/07 09:45:16;;;;;;;7.35;1.30;;;6.10;99.90;;;;;;5031629;28;20107;-76
2022/12/07 09:47:42;;;;;;;12.23;1.50;;;6.20;99.90;;;;;;5031571;28;20061;-77
2022/12/07 09:50:15;;;;;;;8.85;1.83;;;6.20;99.90;;;;;;5031512;28;20049;-76
2022/12/07 09:52:42;;;;;;;10.20;1.95;;;6.30;99.90;;;;;;5039734;28;20049;-76
2022/12/07 09:55:13;;;;;;;13.15;1.95;;;6.40;99.90;;;;;;5052254;28;20037;-76
2022/12/07 09:57:38;;;;;;;6.65;1.23;;;6.40;99.90;;;;;;5052508;28;20400;-76
2022/12/07 10:00:17;;;;;;;4.45;0.68;;;6.40;99.90;;;;;;5051364;28;20488;-76
2022/12/07 10:03:00;;;;;;;7.68;0.80;;;6.40;99.90;;;;;;5051594;28;20053;-76
2022/12/07 10:05:36;;;;;;;7.18;0.70;;;6.40;99.90;;;;;;5051112;28;20053;-77
2022/12/07 10:08:02;;;;;;;5.75;0.80;;;6.40;99.90;;;;;;5056403;28;20382;-76
2022/12/07 10:10:34;;;;;;;8.18;0.85;;;6.40;99.90;;;;;;5055197;28;20397;-77
2022/12/07 10:13:11;;;;;;;9.95;1.30;;;6.40;99.90;;;;;;5056469;28;20102;-76
2022/12/07 10:15:46;;;;;;;8.07;1.20;;;6.40;99.90;;;;;;5056119;28;20033;-76
2022/12/07 10:18:32;;;;;;;9.55;1.20;;;6.30;99.90;;;;;;5056360;28;20041;-76
2022/12/07 10:21:12;;;;;;;8.43;1.70;;;6.30;99.90;;;;;;5055283;28;20045;-78
2022/12/07 10:23:58;;;;;;;8.27;1.05;;;6.20;99.90;;;;;;5055985;28;20056;-76
2022/12/07 10:26:29;;;;;;;3.78;0.70;;;6.10;99.90;;;;;;5056188;28;20411;-76
2022/12/07 10:28:58;;;;;;;7.55;1.85;;;6.00;99.90;;;;;;5055734;28;20437;-76
2022/12/07 10:31:24;;;;;;;5.53;0.52;;;5.80;99.90;;;;;;5049523;28;20471;-77
2022/12/07 10:33:59;;;;;;;4.03;0.70;;;5.80;99.90;;;;;;5043017;28;20533;-77
2022/12/07 10:36:37;;;;;;;5.90;0.63;;;5.70;99.90;;;;;;5045399;28;20060;-76
2022/12/07 10:39:18;;;;;;;5.63;0.82;;;5.60;99.90;;;;;;5045289;28;20041;-77
2022/12/07 10:41:58;;;;;;;6.78;1.00;;;5.60;99.90;;;;;;5043809;28;20501;-77
2022/12/07 10:44:32;;;;;;;11.70;1.30;;;5.70;99.90;;;;;;5043564;28;20555;-77
2022/12/07 10:47:06;;;;;;;4.97;0.93;;;5.70;99.90;;;;;;5044026;28;20052;-77
2022/12/07 10:49:38;;;;;;;15.43;1.95;;;5.80;99.90;;;;;;5044281;28;20060;-76
2022/12/07 10:52:24;;;;;;;11.18;1.38;;;5.80;99.90;;;;;;5045080;28;20119;-76
2022/12/07 10:55:08;;;;;;;6.28;0.82;;;5.90;99.90;;;;;;5045662;28;20116;-76
2022/12/07 10:57:47;;;;;;;11.05;1.13;;;5.90;99.90;;;;;;5046120;28;20039;-76
2022/12/07 11:00:30;;;;;;;12.75;1.38;;;6.00;99.90;;;;;;5046170;28;20045;-76
2022/12/07 11:03:18;;;;;;;8.10;0.73;;;6.00;99.90;;;;;;5044635;28;20036;-76
2022/12/07 11:06:08;;;;;;;8.88;1.25;;;6.00;99.90;;;;;;5044611;28;20041;-76
2022/12/07 11:08:56;;;;;;;9.50;1.20;;;6.10;99.90;;;;;;5046005;28;20057;-76
2022/12/07 11:11:30;;;;;;;6.93;1.00;;;6.10;99.90;;;;;;5043189;28;20497;-76
2022/12/07 11:14:23;;;;;;;3.97;0.77;;;6.10;99.90;;;;;;5042184;28;20117;-76
2022/12/07 11:16:56;;;;;;;4.85;1.40;;;6.20;99.90;;;;;;5035031;28;20485;-76
2022/12/07 11:19:45;;;;;;;4.50;0.80;;;6.30;99.90;;;;;;5034462;28;20037;-77
2022/12/07 11:22:20;;;;;;;11.57;0.68;;;6.40;99.90;;;;;;5034787;28;20085;-76
2022/12/07 11:25:16;;;;;;;4.07;0.50;;;6.40;99.90;;;;;;5033851;28;20137;-77
2022/12/07 11:27:47;;;;;;;7.97;1.20;;;6.40;99.90;;;;;;5027121;28;20436;-76
2022/12/07 11:30:20;;;;;;;12.70;1.33;;;6.50;99.90;;;;;;5034980;28;20172;-83
2022/12/07 11:32:54;;;;;;;9.30;1.92;;;6.50;99.90;;;;;;5035842;28;20045;-76
2022/12/07 11:36:03;;;;;;;8.68;1.17;;;6.40;99.90;;;;;;5054878;28;20041;-77
2022/12/07 11:38:57;;;;;;;10.55;0.98;;;6.40;99.90;;;;;;5053558;28;20431;-76
2022/12/07 11:41:29;;;;;;;10.32;0.88;;;6.40;99.90;;;;;;5054779;28;20053;-76
2022/12/07 11:44:29;;;;;;;8.23;1.95;;;6.40;99.90;;;;;;5054422;28;20045;-80
2022/12/07 11:47:22;;;;;;;8.73;1.90;;;6.40;99.90;;;;;;5048653;28;20057;-78
2022/12/07 11:49:56;;;;;;;8.15;0.68;;;6.30;99.90;;;;;;5049355;28;20041;-77
2022/12/07 11:52:39;;;;;;;5.68;0.73;;;6.20;99.90;;;;;;5054553;28;20124;-78
2022/12/07 11:55:18;;;;;;;10.93;2.10;;;6.30;99.90;;;;;;5054587;28;20057;-77
2022/12/07 11:57:49;;;;;;;3.58;0.80;;;6.30;99.90;;;;;;5054110;28;20453;-78
2022/12/07 12:00:17;;;;;;;10.48;2.47;;;6.30;99.90;;;;;;5054418;28;20041;-87
2022/12/07 12:03:03;;;;;;;9.00;1.52;;;6.30;99.90;;;;;;5053436;28;20103;-89
2022/12/07 12:05:29;;;;;;;9.95;1.17;;;6.30;99.90;;;;;;5052679;28;20439;-83
2022/12/07 12:08:49;;;;;;;7.78;0.50;;;6.30;99.90;;;;;;5053012;28;20132;-83
2022/12/07 12:11:56;;;;;;;6.45;1.25;;;6.40;99.90;;;;;;5020349;28;20455;-79
2022/12/07 12:14:59;;;;;;;4.20;0.95;;;6.30;99.90;;;;;;5052832;28;20098;-78
2022/12/07 12:17:47;;;;;;;3.95;0.70;;;6.10;99.90;;;;;;5052883;28;20122;-84
2022/12/07 12:20:29;;;;;;;3.83;0.52;;;6.00;99.90;;;;;;5054082;28;20052;-76
2022/12/07 12:23:01;;;;;;;9.18;1.00;;;6.00;99.90;;;;;;5053554;28;20061;-79
2022/12/07 12:25:40;;;;;;;5.32;0.80;;;5.90;99.90;;;;;;5053662;28;20511;-79
2022/12/07 12:28:15;;;;;;;4.18;0.85;;;5.90;99.90;;;;;;5053688;28;20095;-79
2022/12/07 12:30:41;;;;;;;8.55;0.80;;;5.80;99.90;;;;;;5052540;28;20037;-81
2022/12/07 12:33:27;;;;;;;10.45;1.10;;;5.90;99.90;;;;;;5052377;28;20451;-80
2022/12/07 12:36:18;;;;;;;3.47;0.85;;;5.80;99.90;;;;;;5052303;28;20048;-79
2022/12/07 12:38:58;;;;;;;7.32;0.77;;;5.80;99.90;;;;;;5052488;28;20052;-81
2022/12/07 12:42:05;;;;;;;9.82;2.45;;;5.80;99.90;;;;;;5052533;28;20045;-80
2022/12/07 12:44:33;;;;;;;8.63;0.75;;;5.80;99.90;;;;;;5052058;28;20056;-80
2022/12/07 12:47:40;;;;;;;5.40;0.93;;;5.90;99.90;;;;;;5052104;28;20080;-80
2022/12/07 12:50:20;;;;;;;7.63;0.73;;;5.80;99.90;;;;;;5052027;28;20037;-80
2022/12/07 12:52:51;;;;;;;4.68;0.75;;;5.90;99.90;;;;;;5052298;28;20568;-80
2022/12/07 12:55:20;;;;;;;5.13;1.02;;;5.70;99.90;;;;;;5052011;28;20091;-80
2022/12/07 12:57:47;;;;;;;9.25;1.60;;;5.70;99.90;;;;;;5051964;28;20091;-80
2022/12/07 13:00:23;;;;;;;6.18;0.82;;;5.80;99.90;;;;;;5052116;28;20037;-80
2022/12/07 13:02:53;;;;;;;9.57;2.25;;;5.70;99.90;;;;;;5052192;28;20076;-80
2022/12/07 13:05:27;;;;;;;6.90;0.77;;;5.50;99.90;;;;;;5051820;28;20147;-80
2022/12/07 13:07:58;;;;;;;6.50;0.85;;;5.30;99.90;;;;;;5053471;28;20045;-80
2022/12/07 13:10:23;;;;;;;7.45;0.95;;;5.20;99.90;;;;;;5053069;28;20079;-80
2022/12/07 13:13:19;;;;;;;5.38;0.90;;;5.10;99.90;;;;;;5053278;28;20049;-81
2022/12/07 13:15:50;;;;;;;4.18;0.85;;;5.20;99.90;;;;;;5052018;28;20492;-82
2022/12/07 13:18:28;;;;;;;3.05;0.70;;;5.20;99.90;;;;;;5051810;28;20041;-80
2022/12/07 13:21:09;;;;;;;6.60;1.30;;;5.30;99.90;;;;;;5051758;28;20053;-81